sensor_id;sensor_type;location;lat;lon;timestamp;temperature;humidity
25504;DHT22;13410;52.114;5.718;2023-07-31T00:01:21;20.50;99.90
25504;DHT22;13410;52.114;5.718;2023-07-31T00:03:46;20.40;99.90
25504;DHT22;13410;52.114;5.718;2023-07-31T00:06:12;20.60;99.90
25504;DHT22;13410;52.114;5.718;2023-07-31T00:08:38;20.50;99.90
25504;DHT22;13410;52.114;5.718;2023-07-31T00:11:03;20.40;99.90
25504;DHT22;13410;52.114;5.718;2023-07-31T00:13:29;20.40;99.90
25504;DHT22;13410;52.114;5.718;2023-07-31T00:15:55;20.60;99.90
25504;DHT22;13410;52.114;5.718;2023-07-31T00:18:20;20.70;99.90
25504;DHT22;13410;52.114;5.718;2023-07-31T00:20:46;20.70;99.90
25504;DHT22;13410;52.114;5.718;2023-07-31T00:23:11;20.60;99.90
25504;DHT22;13410;52.114;5.718;2023-07-31T00:25:37;20.70;99.90
25504;DHT22;13410;52.114;5.718;2023-07-31T00:28:03;20.70;99.90
25504;DHT22;13410;52.114;5.718;2023-07-31T00:30:28;20.70;99.90
25504;DHT22;13410;52.114;5.718;2023-07-31T00:32:54;20.70;99.90
25504;DHT22;13410;52.114;5.718;2023-07-31T00:35:19;20.70;99.90
25504;DHT22;13410;52.114;5.718;2023-07-31T00:37:45;20.70;99.90
25504;DHT22;13410;52.114;5.718;2023-07-31T00:40:11;20.80;99.90
25504;DHT22;13410;52.114;5.718;2023-07-31T00:42:36;20.80;99.90
25504;DHT22;13410;52.114;5.718;2023-07-31T00:45:02;20.80;99.90
25504;DHT22;13410;52.114;5.718;2023-07-31T00:47:28;20.90;99.90
25504;DHT22;13410;52.114;5.718;2023-07-31T00:49:54;20.90;99.90
25504;DHT22;13410;52.114;5.718;2023-07-31T00:52:20;20.80;99.90
25504;DHT22;13410;52.114;5.718;2023-07-31T00:54:46;20.90;99.90
25504;DHT22;13410;52.114;5.718;2023-07-31T00:57:12;20.90;99.90
25504;DHT22;13410;52.114;5.718;2023-07-31T00:59:37;21.00;99.90
25504;DHT22;13410;52.114;5.718;2023-07-31T01:02:03;21.00;99.90
25504;DHT22;13410;52.114;5.718;2023-07-31T01:04:29;20.90;99.90
25504;DHT22;13410;52.114;5.718;2023-07-31T01:07:18;21.10;99.90
25504;DHT22;13410;52.114;5.718;2023-07-31T01:12:40;20.90;99.90
25504;DHT22;13410;52.114;5.718;2023-07-31T01:15:08;20.90;99.90
25504;DHT22;13410;52.114;5.718;2023-07-31T01:17:38;20.90;99.90
25504;DHT22;13410;52.114;5.718;2023-07-31T01:20:14;21.10;99.90
25504;DHT22;13410;52.114;5.718;2023-07-31T01:26:03;20.80;99.90
25504;DHT22;13410;52.114;5.718;2023-07-31T01:31:17;20.70;99.90
25504;DHT22;13410;52.114;5.718;2023-07-31T01:33:43;20.80;99.90
25504;DHT22;13410;52.114;5.718;2023-07-31T01:36:09;20.80;99.90
25504;DHT22;13410;52.114;5.718;2023-07-31T01:38:35;20.80;99.90
25504;DHT22;13410;52.114;5.718;2023-07-31T01:41:01;20.90;99.90
25504;DHT22;13410;52.114;5.718;2023-07-31T01:43:26;21.10;99.90
25504;DHT22;13410;52.114;5.718;2023-07-31T01:45:52;21.00;99.90
25504;DHT22;13410;52.114;5.718;2023-07-31T01:48:18;21.00;99.90
25504;DHT22;13410;52.114;5.718;2023-07-31T01:50:43;20.80;99.90
25504;DHT22;13410;52.114;5.718;2023-07-31T01:53:09;20.90;99.90
25504;DHT22;13410;52.114;5.718;2023-07-31T01:55:34;20.80;99.90
25504;DHT22;13410;52.114;5.718;2023-07-31T01:58:00;20.70;99.90
25504;DHT22;13410;52.114;5.718;2023-07-31T02:00:25;20.70;99.90
25504;DHT22;13410;52.114;5.718;2023-07-31T02:02:51;20.70;99.90
25504;DHT22;13410;52.114;5.718;2023-07-31T02:05:16;20.60;99.90
25504;DHT22;13410;52.114;5.718;2023-07-31T02:07:42;20.60;99.90
25504;DHT22;13410;52.114;5.718;2023-07-31T02:10:08;20.70;99.90
25504;DHT22;13410;52.114;5.718;2023-07-31T02:12:33;20.80;99.90
25504;DHT22;13410;52.114;5.718;2023-07-31T02:14:59;20.80;99.90
25504;DHT22;13410;52.114;5.718;2023-07-31T02:17:24;21.00;99.90
25504;DHT22;13410;52.114;5.718;2023-07-31T02:19:50;21.00;99.90
25504;DHT22;13410;52.114;5.718;2023-07-31T02:22:15;21.00;99.90
25504;DHT22;13410;52.114;5.718;2023-07-31T02:24:41;20.80;99.90
25504;DHT22;13410;52.114;5.718;2023-07-31T02:27:07;20.80;99.90
25504;DHT22;13410;52.114;5.718;2023-07-31T02:29:32;20.80;99.90
25504;DHT22;13410;52.114;5.718;2023-07-31T02:31:58;20.80;99.90
25504;DHT22;13410;52.114;5.718;2023-07-31T02:34:23;20.70;99.90
25504;DHT22;13410;52.114;5.718;2023-07-31T02:36:49;20.60;99.90
25504;DHT22;13410;52.114;5.718;2023-07-31T02:39:14;20.60;99.90
25504;DHT22;13410;52.114;5.718;2023-07-31T02:41:40;20.70;99.90
25504;DHT22;13410;52.114;5.718;2023-07-31T02:44:05;20.70;99.90
25504;DHT22;13410;52.114;5.718;2023-07-31T02:46:31;20.80;99.90
25504;DHT22;13410;52.114;5.718;2023-07-31T02:48:57;20.90;99.90
25504;DHT22;13410;52.114;5.718;2023-07-31T02:51:22;20.80;99.90
25504;DHT22;13410;52.114;5.718;2023-07-31T02:53:48;20.80;99.90
25504;DHT22;13410;52.114;5.718;2023-07-31T02:56:14;20.90;99.90
25504;DHT22;13410;52.114;5.718;2023-07-31T02:58:39;20.90;99.90
25504;DHT22;13410;52.114;5.718;2023-07-31T03:01:05;20.90;99.90
25504;DHT22;13410;52.114;5.718;2023-07-31T03:03:30;20.90;99.90
25504;DHT22;13410;52.114;5.718;2023-07-31T03:05:56;20.80;99.90
25504;DHT22;13410;52.114;5.718;2023-07-31T03:08:21;20.90;99.90
25504;DHT22;13410;52.114;5.718;2023-07-31T03:10:47;21.10;99.90
25504;DHT22;13410;52.114;5.718;2023-07-31T03:13:12;21.00;99.90
25504;DHT22;13410;52.114;5.718;2023-07-31T03:15:38;21.10;99.90
25504;DHT22;13410;52.114;5.718;2023-07-31T03:18:03;21.10;99.90
25504;DHT22;13410;52.114;5.718;2023-07-31T03:20:29;21.10;99.90
25504;DHT22;13410;52.114;5.718;2023-07-31T03:22:54;21.10;99.90
25504;DHT22;13410;52.114;5.718;2023-07-31T03:25:20;21.20;99.90
25504;DHT22;13410;52.114;5.718;2023-07-31T03:27:45;21.10;99.90
25504;DHT22;13410;52.114;5.718;2023-07-31T03:30:11;21.00;99.90
25504;DHT22;13410;52.114;5.718;2023-07-31T03:32:36;21.00;99.90
25504;DHT22;13410;52.114;5.718;2023-07-31T03:35:02;20.90;99.90
25504;DHT22;13410;52.114;5.718;2023-07-31T03:37:28;20.90;99.90
25504;DHT22;13410;52.114;5.718;2023-07-31T03:39:54;20.80;99.90
25504;DHT22;13410;52.114;5.718;2023-07-31T03:42:20;20.80;99.90
25504;DHT22;13410;52.114;5.718;2023-07-31T03:44:45;20.80;99.90
25504;DHT22;13410;52.114;5.718;2023-07-31T03:47:12;20.90;99.90
25504;DHT22;13410;52.114;5.718;2023-07-31T03:49:37;20.80;99.90
25504;DHT22;13410;52.114;5.718;2023-07-31T03:52:03;20.90;99.90
25504;DHT22;13410;52.114;5.718;2023-07-31T03:54:29;21.00;99.90
25504;DHT22;13410;52.114;5.718;2023-07-31T03:56:54;20.90;99.90
25504;DHT22;13410;52.114;5.718;2023-07-31T03:59:20;20.90;99.90
25504;DHT22;13410;52.114;5.718;2023-07-31T04:01:45;20.80;99.90
25504;DHT22;13410;52.114;5.718;2023-07-31T04:04:11;20.80;99.90
25504;DHT22;13410;52.114;5.718;2023-07-31T04:06:37;20.80;99.90
25504;DHT22;13410;52.114;5.718;2023-07-31T04:09:03;20.90;99.90
25504;DHT22;13410;52.114;5.718;2023-07-31T04:11:28;20.80;99.90
25504;DHT22;13410;52.114;5.718;2023-07-31T04:13:54;20.90;99.90
25504;DHT22;13410;52.114;5.718;2023-07-31T04:16:19;20.90;99.90
25504;DHT22;13410;52.114;5.718;2023-07-31T04:18:45;20.90;99.90
25504;DHT22;13410;52.114;5.718;2023-07-31T04:21:10;20.90;99.90
25504;DHT22;13410;52.114;5.718;2023-07-31T04:23:36;21.00;99.90
25504;DHT22;13410;52.114;5.718;2023-07-31T04:26:01;20.90;99.90
25504;DHT22;13410;52.114;5.718;2023-07-31T04:28:27;21.00;99.90
25504;DHT22;13410;52.114;5.718;2023-07-31T04:30:52;21.00;99.90
25504;DHT22;13410;52.114;5.718;2023-07-31T04:33:18;21.00;99.90
25504;DHT22;13410;52.114;5.718;2023-07-31T04:35:50;21.10;99.90
25504;DHT22;13410;52.114;5.718;2023-07-31T04:38:18;21.10;99.90
25504;DHT22;13410;52.114;5.718;2023-07-31T04:40:44;21.10;99.90
25504;DHT22;13410;52.114;5.718;2023-07-31T04:43:09;21.10;99.90
25504;DHT22;13410;52.114;5.718;2023-07-31T04:45:35;21.10;99.90
25504;DHT22;13410;52.114;5.718;2023-07-31T04:48:00;21.20;99.90
25504;DHT22;13410;52.114;5.718;2023-07-31T04:50:26;21.30;99.90
25504;DHT22;13410;52.114;5.718;2023-07-31T04:52:52;21.30;99.90
25504;DHT22;13410;52.114;5.718;2023-07-31T04:55:17;21.30;99.90
25504;DHT22;13410;52.114;5.718;2023-07-31T04:57:43;21.30;99.90
25504;DHT22;13410;52.114;5.718;2023-07-31T05:00:09;21.20;99.90
25504;DHT22;13410;52.114;5.718;2023-07-31T05:02:34;21.30;99.90
25504;DHT22;13410;52.114;5.718;2023-07-31T05:05:00;21.10;99.90
25504;DHT22;13410;52.114;5.718;2023-07-31T05:07:25;21.10;99.90
25504;DHT22;13410;52.114;5.718;2023-07-31T05:09:51;21.20;99.90
25504;DHT22;13410;52.114;5.718;2023-07-31T05:12:16;21.10;99.90
25504;DHT22;13410;52.114;5.718;2023-07-31T05:14:42;21.30;99.90
25504;DHT22;13410;52.114;5.718;2023-07-31T05:17:07;21.20;99.90
25504;DHT22;13410;52.114;5.718;2023-07-31T05:19:33;21.30;99.90
25504;DHT22;13410;52.114;5.718;2023-07-31T05:21:59;21.20;99.90
25504;DHT22;13410;52.114;5.718;2023-07-31T05:24:24;21.10;99.90
25504;DHT22;13410;52.114;5.718;2023-07-31T05:26:50;21.10;99.90
25504;DHT22;13410;52.114;5.718;2023-07-31T05:29:15;21.00;99.90
25504;DHT22;13410;52.114;5.718;2023-07-31T05:31:41;21.10;99.90
25504;DHT22;13410;52.114;5.718;2023-07-31T05:34:07;21.00;99.90
25504;DHT22;13410;52.114;5.718;2023-07-31T05:36:33;21.00;99.90
25504;DHT22;13410;52.114;5.718;2023-07-31T05:38:58;21.20;99.90
25504;DHT22;13410;52.114;5.718;2023-07-31T05:41:24;21.10;99.90
25504;DHT22;13410;52.114;5.718;2023-07-31T05:43:49;21.10;99.90
25504;DHT22;13410;52.114;5.718;2023-07-31T05:46:15;21.00;99.90
25504;DHT22;13410;52.114;5.718;2023-07-31T05:48:40;20.60;99.90
25504;DHT22;13410;52.114;5.718;2023-07-31T05:51:06;20.70;99.90
25504;DHT22;13410;52.114;5.718;2023-07-31T05:53:32;20.90;99.90
25504;DHT22;13410;52.114;5.718;2023-07-31T05:55:58;20.90;99.90
25504;DHT22;13410;52.114;5.718;2023-07-31T05:58:23;20.90;99.90
25504;DHT22;13410;52.114;5.718;2023-07-31T06:00:49;20.80;99.90
25504;DHT22;13410;52.114;5.718;2023-07-31T06:03:14;20.90;99.90
25504;DHT22;13410;52.114;5.718;2023-07-31T06:05:40;21.00;99.90
25504;DHT22;13410;52.114;5.718;2023-07-31T06:08:06;21.00;99.90
25504;DHT22;13410;52.114;5.718;2023-07-31T06:10:31;20.80;99.90
25504;DHT22;13410;52.114;5.718;2023-07-31T06:12:57;20.90;99.90
25504;DHT22;13410;52.114;5.718;2023-07-31T06:15:22;21.00;99.90
25504;DHT22;13410;52.114;5.718;2023-07-31T06:17:48;21.10;99.90
25504;DHT22;13410;52.114;5.718;2023-07-31T06:20:13;21.20;99.90
25504;DHT22;13410;52.114;5.718;2023-07-31T06:22:42;21.10;99.90
25504;DHT22;13410;52.114;5.718;2023-07-31T06:25:07;21.00;99.90
25504;DHT22;13410;52.114;5.718;2023-07-31T06:27:33;21.10;99.90
25504;DHT22;13410;52.114;5.718;2023-07-31T06:29:58;21.30;99.90
25504;DHT22;13410;52.114;5.718;2023-07-31T06:32:24;21.20;99.90
25504;DHT22;13410;52.114;5.718;2023-07-31T06:34:50;21.40;99.90
25504;DHT22;13410;52.114;5.718;2023-07-31T06:37:16;21.30;99.90
25504;DHT22;13410;52.114;5.718;2023-07-31T06:39:41;21.30;99.90
25504;DHT22;13410;52.114;5.718;2023-07-31T06:42:07;21.40;99.90
25504;DHT22;13410;52.114;5.718;2023-07-31T06:44:33;21.40;99.90
25504;DHT22;13410;52.114;5.718;2023-07-31T06:46:58;21.50;99.90
25504;DHT22;13410;52.114;5.718;2023-07-31T06:49:24;21.50;99.90
25504;DHT22;13410;52.114;5.718;2023-07-31T06:51:49;21.40;99.90
25504;DHT22;13410;52.114;5.718;2023-07-31T06:54:15;21.50;99.90
25504;DHT22;13410;52.114;5.718;2023-07-31T06:56:40;21.60;99.90
25504;DHT22;13410;52.114;5.718;2023-07-31T06:59:06;21.70;99.90
25504;DHT22;13410;52.114;5.718;2023-07-31T07:01:31;21.70;99.90
25504;DHT22;13410;52.114;5.718;2023-07-31T07:03:57;21.70;99.90
25504;DHT22;13410;52.114;5.718;2023-07-31T07:06:23;21.60;99.90
25504;DHT22;13410;52.114;5.718;2023-07-31T07:08:48;21.60;99.90
25504;DHT22;13410;52.114;5.718;2023-07-31T07:11:14;21.70;99.90
25504;DHT22;13410;52.114;5.718;2023-07-31T07:13:39;21.80;99.90
25504;DHT22;13410;52.114;5.718;2023-07-31T07:16:05;21.90;99.90
25504;DHT22;13410;52.114;5.718;2023-07-31T07:18:31;21.90;99.90
25504;DHT22;13410;52.114;5.718;2023-07-31T07:20:56;21.70;99.90
25504;DHT22;13410;52.114;5.718;2023-07-31T07:23:23;21.80;99.90
25504;DHT22;13410;52.114;5.718;2023-07-31T07:25:49;21.90;99.90
25504;DHT22;13410;52.114;5.718;2023-07-31T07:28:15;21.90;99.90
25504;DHT22;13410;52.114;5.718;2023-07-31T07:30:40;21.80;99.90
25504;DHT22;13410;52.114;5.718;2023-07-31T07:33:07;21.80;99.90
25504;DHT22;13410;52.114;5.718;2023-07-31T07:35:34;21.70;99.90
25504;DHT22;13410;52.114;5.718;2023-07-31T07:38:00;21.80;99.90
25504;DHT22;13410;52.114;5.718;2023-07-31T07:40:26;21.80;99.90
25504;DHT22;13410;52.114;5.718;2023-07-31T07:42:51;21.70;99.90
25504;DHT22;13410;52.114;5.718;2023-07-31T07:45:17;21.60;99.90
25504;DHT22;13410;52.114;5.718;2023-07-31T07:47:43;21.80;99.90
25504;DHT22;13410;52.114;5.718;2023-07-31T07:50:09;21.70;99.90
25504;DHT22;13410;52.114;5.718;2023-07-31T07:52:34;21.70;99.90
25504;DHT22;13410;52.114;5.718;2023-07-31T07:55:01;21.80;99.90
25504;DHT22;13410;52.114;5.718;2023-07-31T07:57:27;21.70;99.90
25504;DHT22;13410;52.114;5.718;2023-07-31T07:59:53;21.80;99.90
25504;DHT22;13410;52.114;5.718;2023-07-31T08:02:18;21.90;99.90
25504;DHT22;13410;52.114;5.718;2023-07-31T08:04:44;21.80;99.90
25504;DHT22;13410;52.114;5.718;2023-07-31T08:07:13;21.90;99.90
25504;DHT22;13410;52.114;5.718;2023-07-31T08:09:39;21.90;99.90
25504;DHT22;13410;52.114;5.718;2023-07-31T08:12:05;21.80;99.90
25504;DHT22;13410;52.114;5.718;2023-07-31T08:14:31;21.60;99.90
25504;DHT22;13410;52.114;5.718;2023-07-31T08:16:56;21.50;99.90
25504;DHT22;13410;52.114;5.718;2023-07-31T08:19:22;21.40;99.90
25504;DHT22;13410;52.114;5.718;2023-07-31T08:21:48;21.40;99.90
25504;DHT22;13410;52.114;5.718;2023-07-31T08:24:13;21.60;99.90
25504;DHT22;13410;52.114;5.718;2023-07-31T08:26:39;21.60;99.90
25504;DHT22;13410;52.114;5.718;2023-07-31T08:29:04;21.80;99.90
25504;DHT22;13410;52.114;5.718;2023-07-31T08:31:30;21.90;99.90
25504;DHT22;13410;52.114;5.718;2023-07-31T08:33:56;21.80;99.90
25504;DHT22;13410;52.114;5.718;2023-07-31T08:36:21;21.80;99.90
25504;DHT22;13410;52.114;5.718;2023-07-31T08:38:47;22.00;99.90
25504;DHT22;13410;52.114;5.718;2023-07-31T08:41:13;22.10;99.90
25504;DHT22;13410;52.114;5.718;2023-07-31T08:43:39;22.40;99.90
25504;DHT22;13410;52.114;5.718;2023-07-31T08:46:05;22.60;99.90
25504;DHT22;13410;52.114;5.718;2023-07-31T08:48:31;22.60;99.90
25504;DHT22;13410;52.114;5.718;2023-07-31T08:50:57;22.70;99.90
25504;DHT22;13410;52.114;5.718;2023-07-31T08:53:23;22.80;99.90
25504;DHT22;13410;52.114;5.718;2023-07-31T08:55:49;22.90;99.90
25504;DHT22;13410;52.114;5.718;2023-07-31T08:58:15;22.80;99.90
25504;DHT22;13410;52.114;5.718;2023-07-31T09:00:41;22.70;99.90
25504;DHT22;13410;52.114;5.718;2023-07-31T09:03:13;22.80;99.90
25504;DHT22;13410;52.114;5.718;2023-07-31T09:05:42;22.90;99.90
25504;DHT22;13410;52.114;5.718;2023-07-31T09:08:09;22.90;99.90
25504;DHT22;13410;52.114;5.718;2023-07-31T09:10:41;22.90;99.90
25504;DHT22;13410;52.114;5.718;2023-07-31T09:13:07;22.60;99.90
25504;DHT22;13410;52.114;5.718;2023-07-31T09:15:33;22.50;99.90
25504;DHT22;13410;52.114;5.718;2023-07-31T09:18:00;22.40;99.90
25504;DHT22;13410;52.114;5.718;2023-07-31T09:20:28;22.50;99.90
25504;DHT22;13410;52.114;5.718;2023-07-31T09:22:56;22.60;99.90
25504;DHT22;13410;52.114;5.718;2023-07-31T09:25:26;22.70;99.90
25504;DHT22;13410;52.114;5.718;2023-07-31T09:27:58;22.80;99.90
25504;DHT22;13410;52.114;5.718;2023-07-31T09:30:25;23.10;99.90
25504;DHT22;13410;52.114;5.718;2023-07-31T09:32:52;23.10;99.90
25504;DHT22;13410;52.114;5.718;2023-07-31T09:35:30;23.20;99.90
25504;DHT22;13410;52.114;5.718;2023-07-31T09:37:58;23.30;99.90
25504;DHT22;13410;52.114;5.718;2023-07-31T09:40:38;23.20;99.90
25504;DHT22;13410;52.114;5.718;2023-07-31T09:43:08;23.20;99.90
25504;DHT22;13410;52.114;5.718;2023-07-31T09:45:40;23.10;99.90
25504;DHT22;13410;52.114;5.718;2023-07-31T09:48:10;23.10;99.90
25504;DHT22;13410;52.114;5.718;2023-07-31T09:50:37;23.00;99.90
25504;DHT22;13410;52.114;5.718;2023-07-31T09:53:06;23.10;99.90
25504;DHT22;13410;52.114;5.718;2023-07-31T09:55:36;23.00;99.90
25504;DHT22;13410;52.114;5.718;2023-07-31T09:58:20;23.10;99.90
25504;DHT22;13410;52.114;5.718;2023-07-31T10:00:46;23.20;99.90
25504;DHT22;13410;52.114;5.718;2023-07-31T10:03:12;23.20;99.90
25504;DHT22;13410;52.114;5.718;2023-07-31T10:05:45;23.20;99.90
25504;DHT22;13410;52.114;5.718;2023-07-31T10:08:15;23.30;99.90
25504;DHT22;13410;52.114;5.718;2023-07-31T10:10:43;23.50;99.90
25504;DHT22;13410;52.114;5.718;2023-07-31T10:13:08;23.60;99.90
25504;DHT22;13410;52.114;5.718;2023-07-31T10:15:35;23.60;99.90
25504;DHT22;13410;52.114;5.718;2023-07-31T10:18:01;23.60;99.90
25504;DHT22;13410;52.114;5.718;2023-07-31T10:20:28;23.50;99.90
25504;DHT22;13410;52.114;5.718;2023-07-31T10:22:55;23.40;99.90
25504;DHT22;13410;52.114;5.718;2023-07-31T10:25:22;23.50;99.90
25504;DHT22;13410;52.114;5.718;2023-07-31T10:27:48;23.50;99.90
25504;DHT22;13410;52.114;5.718;2023-07-31T10:30:19;23.60;99.90
25504;DHT22;13410;52.114;5.718;2023-07-31T10:32:45;23.60;99.90
25504;DHT22;13410;52.114;5.718;2023-07-31T10:35:11;23.60;99.90
25504;DHT22;13410;52.114;5.718;2023-07-31T10:37:42;23.60;99.90
25504;DHT22;13410;52.114;5.718;2023-07-31T10:40:19;23.50;99.90
25504;DHT22;13410;52.114;5.718;2023-07-31T10:42:48;23.80;99.90
25504;DHT22;13410;52.114;5.718;2023-07-31T10:45:33;23.80;99.90
25504;DHT22;13410;52.114;5.718;2023-07-31T10:48:20;23.70;99.90
25504;DHT22;13410;52.114;5.718;2023-07-31T10:50:51;23.80;99.90
25504;DHT22;13410;52.114;5.718;2023-07-31T10:53:24;23.70;99.90
25504;DHT22;13410;52.114;5.718;2023-07-31T10:55:50;23.80;99.90
25504;DHT22;13410;52.114;5.718;2023-07-31T10:58:20;23.70;99.90
25504;DHT22;13410;52.114;5.718;2023-07-31T11:00:48;24.00;99.90
25504;DHT22;13410;52.114;5.718;2023-07-31T11:03:18;24.20;99.90
25504;DHT22;13410;52.114;5.718;2023-07-31T11:06:07;24.30;99.90
25504;DHT22;13410;52.114;5.718;2023-07-31T11:08:33;24.30;99.90
25504;DHT22;13410;52.114;5.718;2023-07-31T11:13:39;24.30;99.90
25504;DHT22;13410;52.114;5.718;2023-07-31T11:16:05;24.20;99.90
25504;DHT22;13410;52.114;5.718;2023-07-31T11:18:31;24.30;99.90
25504;DHT22;13410;52.114;5.718;2023-07-31T11:20:57;24.30;99.90
25504;DHT22;13410;52.114;5.718;2023-07-31T11:23:23;24.10;99.90
25504;DHT22;13410;52.114;5.718;2023-07-31T11:25:49;24.20;99.90
25504;DHT22;13410;52.114;5.718;2023-07-31T11:28:17;24.50;99.90
25504;DHT22;13410;52.114;5.718;2023-07-31T11:30:44;24.80;99.90
25504;DHT22;13410;52.114;5.718;2023-07-31T11:33:11;25.10;99.90
25504;DHT22;13410;52.114;5.718;2023-07-31T11:35:48;25.10;99.90
25504;DHT22;13410;52.114;5.718;2023-07-31T11:38:32;25.00;99.90
25504;DHT22;13410;52.114;5.718;2023-07-31T11:41:00;24.80;99.90
25504;DHT22;13410;52.114;5.718;2023-07-31T11:43:27;24.80;99.90
25504;DHT22;13410;52.114;5.718;2023-07-31T11:45:57;24.60;99.90
25504;DHT22;13410;52.114;5.718;2023-07-31T11:48:25;24.40;99.90
25504;DHT22;13410;52.114;5.718;2023-07-31T11:50:53;24.50;99.90
25504;DHT22;13410;52.114;5.718;2023-07-31T11:53:27;24.50;99.90
25504;DHT22;13410;52.114;5.718;2023-07-31T11:55:54;24.20;99.90
25504;DHT22;13410;52.114;5.718;2023-07-31T11:58:21;24.30;99.90
25504;DHT22;13410;52.114;5.718;2023-07-31T12:00:47;24.40;99.90
25504;DHT22;13410;52.114;5.718;2023-07-31T12:03:14;24.60;99.90
25504;DHT22;13410;52.114;5.718;2023-07-31T12:05:39;24.50;99.90
25504;DHT22;13410;52.114;5.718;2023-07-31T12:08:11;24.40;99.90
25504;DHT22;13410;52.114;5.718;2023-07-31T12:10:38;24.40;99.90
25504;DHT22;13410;52.114;5.718;2023-07-31T12:13:08;24.70;99.90
25504;DHT22;13410;52.114;5.718;2023-07-31T12:15:43;24.60;99.90
25504;DHT22;13410;52.114;5.718;2023-07-31T12:18:19;24.80;99.90
25504;DHT22;13410;52.114;5.718;2023-07-31T12:20:59;24.90;99.90
25504;DHT22;13410;52.114;5.718;2023-07-31T12:23:32;24.90;99.90
25504;DHT22;13410;52.114;5.718;2023-07-31T12:28:28;24.50;99.90
25504;DHT22;13410;52.114;5.718;2023-07-31T12:30:57;24.60;99.90
25504;DHT22;13410;52.114;5.718;2023-07-31T12:33:31;24.60;99.90
25504;DHT22;13410;52.114;5.718;2023-07-31T12:35:57;24.80;99.90
25504;DHT22;13410;52.114;5.718;2023-07-31T12:38:23;24.90;99.90
25504;DHT22;13410;52.114;5.718;2023-07-31T12:40:49;25.00;99.90
25504;DHT22;13410;52.114;5.718;2023-07-31T12:43:15;24.90;99.90
25504;DHT22;13410;52.114;5.718;2023-07-31T12:45:41;24.80;99.90
25504;DHT22;13410;52.114;5.718;2023-07-31T12:48:06;24.80;99.90
25504;DHT22;13410;52.114;5.718;2023-07-31T12:50:32;24.60;99.90
25504;DHT22;13410;52.114;5.718;2023-07-31T12:52:57;24.60;99.90
25504;DHT22;13410;52.114;5.718;2023-07-31T12:55:23;24.80;99.90
25504;DHT22;13410;52.114;5.718;2023-07-31T12:57:49;24.90;99.90
25504;DHT22;13410;52.114;5.718;2023-07-31T13:00:16;25.00;99.90
25504;DHT22;13410;52.114;5.718;2023-07-31T13:02:41;25.00;99.90
25504;DHT22;13410;52.114;5.718;2023-07-31T13:05:07;24.90;99.90
25504;DHT22;13410;52.114;5.718;2023-07-31T13:07:33;25.10;99.90
25504;DHT22;13410;52.114;5.718;2023-07-31T13:09:58;25.10;99.90
25504;DHT22;13410;52.114;5.718;2023-07-31T13:12:24;25.00;99.90
25504;DHT22;13410;52.114;5.718;2023-07-31T13:14:50;25.00;99.90
25504;DHT22;13410;52.114;5.718;2023-07-31T13:17:16;25.10;99.90
25504;DHT22;13410;52.114;5.718;2023-07-31T13:19:42;25.20;99.90
25504;DHT22;13410;52.114;5.718;2023-07-31T13:22:08;25.50;99.90
25504;DHT22;13410;52.114;5.718;2023-07-31T13:24:33;25.70;99.90
25504;DHT22;13410;52.114;5.718;2023-07-31T13:26:59;25.70;99.90
25504;DHT22;13410;52.114;5.718;2023-07-31T13:29:25;25.80;99.90
25504;DHT22;13410;52.114;5.718;2023-07-31T13:31:51;25.60;99.90
25504;DHT22;13410;52.114;5.718;2023-07-31T13:34:17;25.60;99.90
25504;DHT22;13410;52.114;5.718;2023-07-31T13:36:43;25.70;99.90
25504;DHT22;13410;52.114;5.718;2023-07-31T13:39:08;25.80;99.90
25504;DHT22;13410;52.114;5.718;2023-07-31T13:41:34;25.70;99.90
25504;DHT22;13410;52.114;5.718;2023-07-31T13:43:59;25.50;99.90
25504;DHT22;13410;52.114;5.718;2023-07-31T13:46:25;25.30;99.90
25504;DHT22;13410;52.114;5.718;2023-07-31T13:48:51;25.10;99.90
25504;DHT22;13410;52.114;5.718;2023-07-31T13:51:20;25.00;99.90
25504;DHT22;13410;52.114;5.718;2023-07-31T13:53:45;24.90;99.90
25504;DHT22;13410;52.114;5.718;2023-07-31T13:56:11;24.80;99.90
25504;DHT22;13410;52.114;5.718;2023-07-31T13:58:36;24.70;99.90
25504;DHT22;13410;52.114;5.718;2023-07-31T14:01:02;24.60;99.90
25504;DHT22;13410;52.114;5.718;2023-07-31T14:03:28;24.60;99.90
25504;DHT22;13410;52.114;5.718;2023-07-31T14:05:55;24.50;99.90
25504;DHT22;13410;52.114;5.718;2023-07-31T14:08:21;24.30;99.90
25504;DHT22;13410;52.114;5.718;2023-07-31T14:10:46;24.30;99.90
25504;DHT22;13410;52.114;5.718;2023-07-31T14:13:12;24.30;99.90
25504;DHT22;13410;52.114;5.718;2023-07-31T14:15:38;24.20;99.90
25504;DHT22;13410;52.114;5.718;2023-07-31T14:18:03;24.10;99.90
25504;DHT22;13410;52.114;5.718;2023-07-31T14:20:30;24.30;99.90
25504;DHT22;13410;52.114;5.718;2023-07-31T14:22:55;24.40;99.90
25504;DHT22;13410;52.114;5.718;2023-07-31T14:25:21;24.30;99.90
25504;DHT22;13410;52.114;5.718;2023-07-31T14:27:46;24.50;99.90
25504;DHT22;13410;52.114;5.718;2023-07-31T14:30:12;24.30;99.90
25504;DHT22;13410;52.114;5.718;2023-07-31T14:32:37;24.20;99.90
25504;DHT22;13410;52.114;5.718;2023-07-31T14:35:03;24.20;99.90
25504;DHT22;13410;52.114;5.718;2023-07-31T14:37:49;24.00;99.90
25504;DHT22;13410;52.114;5.718;2023-07-31T14:40:15;24.00;99.90
25504;DHT22;13410;52.114;5.718;2023-07-31T14:42:40;24.10;99.90
25504;DHT22;13410;52.114;5.718;2023-07-31T14:45:07;23.90;99.90
25504;DHT22;13410;52.114;5.718;2023-07-31T14:47:33;24.00;99.90
25504;DHT22;13410;52.114;5.718;2023-07-31T14:49:59;24.00;99.90
25504;DHT22;13410;52.114;5.718;2023-07-31T14:52:25;23.90;99.90
25504;DHT22;13410;52.114;5.718;2023-07-31T14:54:51;23.80;99.90
25504;DHT22;13410;52.114;5.718;2023-07-31T14:57:16;23.90;99.90
25504;DHT22;13410;52.114;5.718;2023-07-31T14:59:42;23.90;99.90
25504;DHT22;13410;52.114;5.718;2023-07-31T15:02:09;23.80;99.90
25504;DHT22;13410;52.114;5.718;2023-07-31T15:04:35;23.70;99.90
25504;DHT22;13410;52.114;5.718;2023-07-31T15:07:00;23.80;99.90
25504;DHT22;13410;52.114;5.718;2023-07-31T15:09:26;23.70;99.90
25504;DHT22;13410;52.114;5.718;2023-07-31T15:11:51;23.60;99.90
25504;DHT22;13410;52.114;5.718;2023-07-31T15:14:29;23.70;99.90
25504;DHT22;13410;52.114;5.718;2023-07-31T15:16:56;23.60;99.90
25504;DHT22;13410;52.114;5.718;2023-07-31T15:19:22;23.70;99.90
25504;DHT22;13410;52.114;5.718;2023-07-31T15:21:48;23.70;99.90
25504;DHT22;13410;52.114;5.718;2023-07-31T15:24:14;23.70;99.90
25504;DHT22;13410;52.114;5.718;2023-07-31T15:26:39;23.80;99.90
25504;DHT22;13410;52.114;5.718;2023-07-31T15:29:07;23.70;99.90
25504;DHT22;13410;52.114;5.718;2023-07-31T15:31:40;23.70;99.90
25504;DHT22;13410;52.114;5.718;2023-07-31T15:34:06;23.80;99.90
25504;DHT22;13410;52.114;5.718;2023-07-31T15:36:32;23.70;99.90
25504;DHT22;13410;52.114;5.718;2023-07-31T15:38:57;23.50;99.90
25504;DHT22;13410;52.114;5.718;2023-07-31T15:41:23;23.50;99.90